FASB

Springbok Airport

Springbok, South Africa
METAR FASB 151046Z 35009KT CAVOK 33/M00 Q1017
Observed Flight Rules
Dec-15 @ 10:46 UTC (3 hours ago) Visual Flight Rules
Wind Visibility Clouds
350° at 9 knots 10,000+ meters
  • Clear skies
Temperatures Readings
Current 33°C / 91°F
Dewpoint 0°C / 32°F
Humidity 12%
Altimeter 30.03" Hg
Pressure 1017 hPa
Elevation 813
METAR FASB 151046Z 35009KT CAVOK 33/M00 Q1017
Observed Flight Rules
Dec-15 @ 10:46 UTC
(3 hours ago)
VFR
Wind Visibility
350° at 9 knots 10,000+ meters
Clouds
  • Clear skies
Temperature Dewpoint
33°C / 91°F 0°C / 32°F
Humidity Altimeter Pressure
12% 30.03" Hg 1017 hPa